Terminal Aerodrome Forecast
Issued by NWS

Home | Current Version | Previous Version | Text Only | Print | Product List | Glossary On
Versions: 1 2 3 4 5 6 7 8 9 10 11 12 13 14
000
FTUS46 KSGX 292336
TAFSNA
TAF
KSNA 292336Z 3000/3024 22009KT P6SM SCT025
     FM300500 14007KT P6SM BKN018
     FM301200 16008KT P6SM OVC022
     FM301800 22009KT P6SM SCT025 BKN035=

USA.gov is the U.S. government's official web portal to all federal, state and local government web resources and services.